Kamakuramaru — JG5731 — position and weather

sailwx.info

Track history (hours):
 
Tides and Currents Weather Stations Pressure Air Temp Water Temp Dewpoint Dewpoint Depression Visibility Wind Speed Wind Dir Waves Ship Positions

Kamakuramaru

Last reported at 2014-Oct-26 00:13 UTC. Time now 2014-Oct-26 01:54 UTC.
Position N 35°29' E 139°54'.

Length 31 m; draft 2.5 m.

Type: Tug. MMSI: 431000439.

Date/timePositionNaut miles runAvg speedWind from/ knotsBaromVisibWave heightAir tempDewpointWater temp
2014-Oct-26 00:13N 35°29' E 139°54'5 7.7
2014-Oct-25 23:33N 35°27' E 139°48'6 6.4
2014-Oct-25 22:34N 35°28' E 139°41'2 2.0
2014-Oct-25 21:34N 35°27' E 139°43'4 3.5
2014-Oct-25 20:34N 35°27' E 139°38'0 0.0
2014-Oct-25 19:34N 35°27' E 139°38'0 0.0
2014-Oct-25 18:34N 35°27' E 139°38'0 0.0
2014-Oct-25 17:33N 35°27' E 139°38'0 0.0
2014-Oct-25 16:34N 35°27' E 139°38'0 0.0
2014-Oct-25 15:34N 35°27' E 139°38'0 0.0
2014-Oct-25 14:34N 35°27' E 139°38'0 0.0
2014-Oct-25 13:34N 35°27' E 139°38'0 0.0
2014-Oct-25 12:34N 35°27' E 139°38'0 0.0
2014-Oct-25 11:34N 35°27' E 139°38'0 0.0
2014-Oct-25 10:34N 35°27' E 139°38'0 0.0
2014-Oct-25 09:33N 35°27' E 139°38'0 0.0
2014-Oct-25 08:33N 35°27' E 139°38'0 0.0
2014-Oct-25 07:33N 35°27' E 139°38'0 0.0
2014-Oct-25 06:33N 35°27' E 139°38'0 0.0
2014-Oct-25 05:34N 35°27' E 139°38'0 0.0
2014-Oct-25 04:33N 35°27' E 139°38'0 0.0
2014-Oct-25 03:33N 35°27' E 139°38'0 0.0
2014-Oct-25 02:33N 35°27' E 139°38'0 0.0
2014-Oct-25 01:34N 35°27' E 139°38'0 0.0
2014-Oct-25 00:34N 35°27' E 139°38'2 2.3
2014-Oct-24 23:34N 35°27' E 139°41'1 1.4
2014-Oct-24 22:34N 35°27' E 139°43'1 0.7
2014-Oct-24 21:34N 35°28' E 139°42'1 0.5
2014-Oct-24 20:34N 35°28' E 139°42'1 0.8
2014-Oct-24 19:34N 35°28' E 139°41'0 0.0
2014-Oct-24 18:33N 35°28' E 139°41'0 0.0
2014-Oct-24 17:33N 35°28' E 139°41'0 0.0
2014-Oct-24 16:34N 35°28' E 139°41'0 0.0
2014-Oct-24 15:33N 35°28' E 139°41'0 0.0
2014-Oct-24 14:34N 35°28' E 139°41'0 0.0
2014-Oct-24 13:33N 35°28' E 139°41'0 0.0
2014-Oct-24 12:33N 35°28' E 139°41'3 3.4
2014-Oct-24 11:33N 35°24' E 139°41'1 1.2
2014-Oct-24 10:34N 35°23' E 139°41'1 0.5
2014-Oct-24 09:34N 35°23' E 139°41'5 5.3
2014-Oct-24 08:34N 35°28' E 139°42'1 0.8
2014-Oct-24 07:33N 35°27' E 139°43'1 1.1
2014-Oct-24 06:34N 35°28' E 139°42'3 2.6
2014-Oct-24 05:33N 35°27' E 139°38'5 4.8
2014-Oct-24 04:33N 35°27' E 139°44'3 3.2
2014-Oct-24 03:33N 35°30' E 139°46'1 1.2
2014-Oct-24 02:34N 35°29' E 139°46'0 0.0
2014-Oct-24 01:33N 35°29' E 139°46'0 0.0
2014-Oct-24 00:34N 35°29' E 139°46'0 0.0
2014-Oct-23 23:34N 35°29' E 139°46'2 2.4
2014-Oct-23 22:33N 35°31' E 139°46'7 7.2
2014-Oct-23 21:33N 35°27' E 139°38'0 0.0
2014-Oct-23 20:33N 35°27' E 139°38'0 0.0
2014-Oct-23 19:34N 35°27' E 139°38'0 0.0
2014-Oct-23 18:34N 35°27' E 139°38'0 0.0
2014-Oct-23 17:34N 35°27' E 139°38'0 0.0
2014-Oct-23 16:34N 35°27' E 139°38'0 0.0
2014-Oct-23 15:33N 35°27' E 139°38'0 0.0
2014-Oct-23 14:34N 35°27' E 139°38'0 0.0
2014-Oct-23 13:34N 35°27' E 139°38'0 0.0
2014-Oct-23 12:34N 35°27' E 139°38'0 0.0
2014-Oct-23 11:33N 35°27' E 139°38'0 0.0
2014-Oct-23 10:34N 35°27' E 139°38'0 0.0
2014-Oct-23 09:34N 35°27' E 139°38'0 0.0
2014-Oct-23 08:34N 35°27' E 139°38'0 0.0
2014-Oct-23 07:34N 35°27' E 139°38'0 0.0
2014-Oct-23 06:34N 35°27' E 139°38'1 1.1
2014-Oct-23 05:34N 35°28' E 139°40'2 2.5
2014-Oct-23 04:34N 35°27' E 139°43'1 0.7
2014-Oct-23 03:33N 35°27' E 139°42'0 0.0
2014-Oct-23 02:34N 35°27' E 139°42'0 0.0
2014-Oct-23 01:34N 35°27' E 139°42'0 0.0
2014-Oct-23 00:33N 35°27' E 139°42'0 0.0
2014-Oct-22 23:34N 35°27' E 139°42'0 0.3
2014-Oct-22 22:33N 35°26' E 139°42'3 3.2
2014-Oct-22 21:34N 35°27' E 139°38'0 0.1
2014-Oct-22 20:33N 35°27' E 139°39'0 0.0
2014-Oct-22 19:34N 35°27' E 139°39'0 0.0
2014-Oct-22 18:34N 35°27' E 139°39'0 0.0
2014-Oct-22 17:33N 35°27' E 139°39'0 0.0
2014-Oct-22 16:34N 35°27' E 139°39'0 0.0
2014-Oct-22 15:34N 35°27' E 139°39'0 0.0
2014-Oct-22 14:34N 35°27' E 139°39'0 0.0
2014-Oct-22 13:33N 35°27' E 139°39'0 0.0
2014-Oct-22 12:34N 35°27' E 139°39'0 0.0
2014-Oct-22 11:34N 35°27' E 139°39'0 0.0
2014-Oct-22 10:34N 35°27' E 139°39'3 3.3
2014-Oct-22 09:34N 35°29' E 139°42'2 2.3
2014-Oct-22 08:34N 35°27' E 139°42'1 0.6
2014-Oct-22 07:34N 35°27' E 139°41'2 2.1
2014-Oct-22 06:34N 35°27' E 139°38'0 0.0
2014-Oct-22 05:34N 35°27' E 139°38'0 0.0
2014-Oct-22 04:33N 35°27' E 139°38'0 0.0
2014-Oct-22 03:34N 35°27' E 139°38'4 3.9
2014-Oct-22 02:34N 35°29' E 139°43'3 3.2
2014-Oct-22 01:34N 35°30' E 139°46'2 1.9
2014-Oct-22 00:33N 35°29' E 139°46'0 0.4
2014-Oct-21 23:34N 35°29' E 139°46'2 2.0
2014-Oct-21 22:33N 35°31' E 139°46'6 6.4
2014-Oct-21 21:34N 35°27' E 139°40'1 1.0
2014-Oct-21 20:34N 35°27' E 139°38'0 0.0
2014-Oct-21 19:34N 35°27' E 139°38'0 0.0
2014-Oct-21 18:34N 35°27' E 139°38'0 0.0
2014-Oct-21 17:33N 35°27' E 139°38'0 0.0
2014-Oct-21 16:34N 35°27' E 139°38'0 0.0
2014-Oct-21 15:34N 35°27' E 139°38'0 0.0
2014-Oct-21 14:34N 35°27' E 139°38'0 0.0
2014-Oct-21 13:34N 35°27' E 139°38'0 0.0
2014-Oct-21 12:33N 35°27' E 139°38'0 0.0
2014-Oct-21 11:33N 35°27' E 139°38'0 0.0
2014-Oct-21 10:33N 35°27' E 139°38'0 0.0
2014-Oct-21 09:33N 35°27' E 139°38'0 0.0
2014-Oct-21 08:34N 35°27' E 139°38'0 0.0
2014-Oct-21 07:34N 35°27' E 139°38'0 0.0
2014-Oct-21 06:33N 35°27' E 139°38'1 0.8
2014-Oct-21 05:34N 35°28' E 139°39'4 4.1
2014-Oct-21 04:33N 35°30' E 139°44'3 3.0
2014-Oct-21 03:34N 35°27' E 139°45'4 4.3
2014-Oct-21 02:34N 35°27' E 139°39'0 0.0
2014-Oct-21 01:34N 35°27' E 139°39'4 3.7
2014-Oct-21 00:34N 35°29' E 139°43'3 2.6
2014-Oct-20 23:34N 35°28' E 139°40'2 1.7
2014-Oct-20 22:34N 35°27' E 139°38'0 0.0
2014-Oct-20 21:34N 35°27' E 139°38'0 0.0
2014-Oct-20 20:34N 35°27' E 139°38'0 0.0
2014-Oct-20 19:33N 35°27' E 139°38'0 0.0
2014-Oct-20 18:33N 35°27' E 139°38'0 0.0
2014-Oct-20 17:34N 35°27' E 139°38'0 0.0
2014-Oct-20 16:34N 35°27' E 139°38'0 0.0
2014-Oct-20 15:33N 35°27' E 139°38'0 0.0
2014-Oct-20 14:34N 35°27' E 139°38'0 0.0
2014-Oct-20 13:34N 35°27' E 139°38'0 0.0
2014-Oct-20 12:34N 35°27' E 139°38'0 0.0
2014-Oct-20 11:34N 35°27' E 139°38'0 0.0
2014-Oct-20 10:33N 35°27' E 139°38'0 0.0
2014-Oct-20 09:34N 35°27' E 139°38'0 0.0
2014-Oct-20 08:34N 35°27' E 139°38'0 0.0
2014-Oct-20 07:34N 35°27' E 139°38'1 0.6
2014-Oct-20 06:33N 35°27' E 139°39'0 0.3
2014-Oct-20 05:33N 35°27' E 139°39'0 0.0
2014-Oct-20 04:34N 35°27' E 139°39'1 1.0
2014-Oct-20 03:34N 35°27' E 139°41'1 1.0
2014-Oct-20 02:33N 35°27' E 139°39'0 0.0
2014-Oct-20 01:34N 35°27' E 139°39'0 0.0
2014-Oct-20 00:34N 35°27' E 139°39'0 0.0
2014-Oct-19 23:34N 35°27' E 139°39'2 2.4
2014-Oct-19 22:34N 35°26' E 139°42'3 3.3
2014-Oct-19 21:33N 35°27' E 139°38'0 0.0
2014-Oct-19 20:34N 35°27' E 139°38'0 0.0
2014-Oct-19 19:34N 35°27' E 139°38'0 0.0
2014-Oct-19 18:34N 35°27' E 139°38'0 0.0
2014-Oct-19 17:34N 35°27' E 139°38'0 0.0
2014-Oct-19 16:34N 35°27' E 139°38'0 0.0
2014-Oct-19 15:34N 35°27' E 139°38'0 0.0
2014-Oct-19 14:33N 35°27' E 139°38'0 0.0
2014-Oct-19 13:33N 35°27' E 139°38'0 0.0
2014-Oct-19 12:34N 35°27' E 139°38'0 0.0
2014-Oct-19 11:34N 35°27' E 139°38'0 0.0
2014-Oct-19 10:33N 35°27' E 139°38'0 0.0
2014-Oct-19 09:34N 35°27' E 139°38'0 0.0
2014-Oct-19 08:34N 35°27' E 139°38'0 0.0
2014-Oct-19 07:34N 35°27' E 139°38'0 0.0
2014-Oct-19 06:34N 35°27' E 139°38'0 0.0
2014-Oct-19 05:34N 35°27' E 139°38'0 0.0
2014-Oct-19 04:34N 35°27' E 139°38'0 0.0
2014-Oct-19 03:34N 35°27' E 139°38'0 0.0
2014-Oct-19 02:34N 35°27' E 139°38'0 0.0
2014-Oct-19 01:34N 35°27' E 139°38'0 0.0
2014-Oct-19 00:34N 35°27' E 139°38'0 0.0
2014-Oct-18 23:33N 35°27' E 139°38'0 0.0
2014-Oct-18 22:33N 35°27' E 139°38'0 0.0
2014-Oct-18 21:33N 35°27' E 139°38'0 0.0
2014-Oct-18 20:34N 35°27' E 139°38'0 0.0
2014-Oct-18 19:34N 35°27' E 139°38'0 0.0
2014-Oct-18 18:33N 35°27' E 139°38'0 0.0
2014-Oct-18 17:33N 35°27' E 139°38'0 0.0
2014-Oct-18 16:33N 35°27' E 139°38'0 0.0
2014-Oct-18 15:33N 35°27' E 139°38'0 0.0
2014-Oct-18 14:34N 35°27' E 139°38'0 0.0
2014-Oct-18 13:34N 35°27' E 139°38'0 0.0
2014-Oct-18 12:34N 35°27' E 139°38'0 0.0
2014-Oct-18 11:34N 35°27' E 139°38'0 0.0
2014-Oct-18 10:34N 35°27' E 139°38'0 0.0
2014-Oct-18 09:33N 35°27' E 139°38'0 0.0
2014-Oct-18 08:34N 35°27' E 139°38'0 0.0
2014-Oct-18 07:34N 35°27' E 139°38'0 0.0
2014-Oct-18 06:34N 35°27' E 139°38'0 0.0
2014-Oct-18 05:33N 35°27' E 139°38'0 0.0
2014-Oct-18 04:34N 35°27' E 139°38'0 0.0
2014-Oct-18 03:34N 35°27' E 139°38'0 0.0
2014-Oct-18 02:33N 35°27' E 139°38'0 0.0
2014-Oct-18 01:34N 35°27' E 139°38'0 0.0
2014-Oct-18 00:34N 35°27' E 139°38'4 4.3
2014-Oct-17 23:34N 35°23' E 139°41'2 2.1
2014-Oct-17 22:34N 35°24' E 139°38'3 2.8
2014-Oct-17 21:34N 35°23' E 139°41'3 2.6
2014-Oct-17 20:34N 35°26' E 139°42'0 0.0
2014-Oct-17 19:34N 35°26' E 139°42'0 0.0
2014-Oct-17 18:34N 35°26' E 139°42'1 1.3
2014-Oct-17 17:33N 35°27' E 139°40'1 1.0
2014-Oct-17 16:34N 35°28' E 139°41'1 0.9
2014-Oct-17 15:34N 35°28' E 139°42'1 0.9
2014-Oct-17 14:34N 35°28' E 139°40'0 0.0
2014-Oct-17 13:33N 35°28' E 139°40'1 1.3
2014-Oct-17 12:34N 35°27' E 139°42'2 2.4
2014-Oct-17 11:34N 35°27' E 139°44'1 1.4
2014-Oct-17 10:33N 35°27' E 139°43'1 1.3
2014-Oct-17 09:34N 35°27' E 139°44'2 2.5
2014-Oct-17 08:34N 35°27' E 139°41'2 2.4
2014-Oct-17 07:33N 35°27' E 139°38'0 0.0
2014-Oct-17 06:34N 35°27' E 139°38'0 0.0
2014-Oct-17 05:34N 35°27' E 139°38'0 0.0
2014-Oct-17 04:34N 35°27' E 139°38'0 0.0
2014-Oct-17 03:34N 35°27' E 139°38'0 0.0
2014-Oct-17 02:33N 35°27' E 139°38'0 0.0
2014-Oct-17 01:34N 35°27' E 139°38'0 0.0
2014-Oct-17 00:33N 35°27' E 139°38'0 0.0
2014-Oct-16 23:34N 35°27' E 139°38'0 0.0
2014-Oct-16 22:34N 35°27' E 139°38'0 0.0
2014-Oct-16 21:33N 35°27' E 139°38'0 0.0
2014-Oct-16 20:34N 35°27' E 139°38'0 0.0
2014-Oct-16 19:34N 35°27' E 139°38'0 0.0
2014-Oct-16 18:33N 35°27' E 139°38'0 0.0
2014-Oct-16 17:34N 35°27' E 139°38'0 0.0
2014-Oct-16 16:34N 35°27' E 139°38'0 0.0
2014-Oct-16 15:34N 35°27' E 139°38'0 0.0
2014-Oct-16 14:34N 35°27' E 139°38'0 0.0
2014-Oct-16 13:33N 35°27' E 139°38'0 0.0
2014-Oct-16 12:34N 35°27' E 139°38'0 0.0
2014-Oct-16 11:34N 35°27' E 139°38'0 0.0
2014-Oct-16 10:33N 35°27' E 139°38'0 0.0
2014-Oct-16 09:33N 35°27' E 139°38'0 0.0
2014-Oct-16 08:34N 35°27' E 139°38'0 0.0
2014-Oct-16 07:34N 35°27' E 139°38'0 0.0
2014-Oct-16 06:34N 35°27' E 139°38'0 0.0
2014-Oct-16 05:34N 35°27' E 139°38'0 0.0
2014-Oct-16 04:33N 35°27' E 139°38'0 0.0
2014-Oct-16 03:33N 35°27' E 139°38'0 0.0
2014-Oct-16 02:33N 35°27' E 139°38'0 0.0
2014-Oct-16 01:34N 35°27' E 139°38'0 0.0
2014-Oct-16 00:33N 35°27' E 139°38'  
Track history (hours):
 
Tides and Currents Weather Stations Pressure Air Temp Water Temp Dewpoint Dewpoint Depression Visibility Wind Speed Wind Dir Waves Ship Positions

Kamakuramaru

Last reported at 2014-Oct-26 00:13 UTC. Time now 2014-Oct-26 01:54 UTC.
Position N 35°29' E 139°54'.

Length 31 m; draft 2.5 m.

Type: Tug. MMSI: 431000439.

Date/timePositionNaut miles runAvg speedWind from/ knotsBaromVisibWave heightAir tempDewpointWater temp
2014-Oct-26 00:13N 35°29' E 139°54'5 7.7
2014-Oct-25 23:33N 35°27' E 139°48'6 6.4
2014-Oct-25 22:34N 35°28' E 139°41'2 2.0
2014-Oct-25 21:34N 35°27' E 139°43'4 3.5
2014-Oct-25 20:34N 35°27' E 139°38'0 0.0
2014-Oct-25 19:34N 35°27' E 139°38'0 0.0
2014-Oct-25 18:34N 35°27' E 139°38'0 0.0
2014-Oct-25 17:33N 35°27' E 139°38'0 0.0
2014-Oct-25 16:34N 35°27' E 139°38'0 0.0
2014-Oct-25 15:34N 35°27' E 139°38'0 0.0
2014-Oct-25 14:34N 35°27' E 139°38'0 0.0
2014-Oct-25 13:34N 35°27' E 139°38'0 0.0
2014-Oct-25 12:34N 35°27' E 139°38'0 0.0
2014-Oct-25 11:34N 35°27' E 139°38'0 0.0
2014-Oct-25 10:34N 35°27' E 139°38'0 0.0
2014-Oct-25 09:33N 35°27' E 139°38'0 0.0
2014-Oct-25 08:33N 35°27' E 139°38'0 0.0
2014-Oct-25 07:33N 35°27' E 139°38'0 0.0
2014-Oct-25 06:33N 35°27' E 139°38'0 0.0
2014-Oct-25 05:34N 35°27' E 139°38'0 0.0
2014-Oct-25 04:33N 35°27' E 139°38'0 0.0
2014-Oct-25 03:33N 35°27' E 139°38'0 0.0
2014-Oct-25 02:33N 35°27' E 139°38'0 0.0
2014-Oct-25 01:34N 35°27' E 139°38'0 0.0
2014-Oct-25 00:34N 35°27' E 139°38'2 2.3
2014-Oct-24 23:34N 35°27' E 139°41'1 1.4
2014-Oct-24 22:34N 35°27' E 139°43'1 0.7
2014-Oct-24 21:34N 35°28' E 139°42'1 0.5
2014-Oct-24 20:34N 35°28' E 139°42'1 0.8
2014-Oct-24 19:34N 35°28' E 139°41'0 0.0
2014-Oct-24 18:33N 35°28' E 139°41'0 0.0
2014-Oct-24 17:33N 35°28' E 139°41'0 0.0
2014-Oct-24 16:34N 35°28' E 139°41'0 0.0
2014-Oct-24 15:33N 35°28' E 139°41'0 0.0
2014-Oct-24 14:34N 35°28' E 139°41'0 0.0
2014-Oct-24 13:33N 35°28' E 139°41'0 0.0
2014-Oct-24 12:33N 35°28' E 139°41'3 3.4
2014-Oct-24 11:33N 35°24' E 139°41'1 1.2
2014-Oct-24 10:34N 35°23' E 139°41'1 0.5
2014-Oct-24 09:34N 35°23' E 139°41'5 5.3
2014-Oct-24 08:34N 35°28' E 139°42'1 0.8
2014-Oct-24 07:33N 35°27' E 139°43'1 1.1
2014-Oct-24 06:34N 35°28' E 139°42'3 2.6
2014-Oct-24 05:33N 35°27' E 139°38'5 4.8
2014-Oct-24 04:33N 35°27' E 139°44'3 3.2
2014-Oct-24 03:33N 35°30' E 139°46'1 1.2
2014-Oct-24 02:34N 35°29' E 139°46'0 0.0
2014-Oct-24 01:33N 35°29' E 139°46'0 0.0
2014-Oct-24 00:34N 35°29' E 139°46'0 0.0
2014-Oct-23 23:34N 35°29' E 139°46'2 2.4
2014-Oct-23 22:33N 35°31' E 139°46'7 7.2
2014-Oct-23 21:33N 35°27' E 139°38'0 0.0
2014-Oct-23 20:33N 35°27' E 139°38'0 0.0
2014-Oct-23 19:34N 35°27' E 139°38'0 0.0
2014-Oct-23 18:34N 35°27' E 139°38'0 0.0
2014-Oct-23 17:34N 35°27' E 139°38'0 0.0
2014-Oct-23 16:34N 35°27' E 139°38'0 0.0
2014-Oct-23 15:33N 35°27' E 139°38'0 0.0
2014-Oct-23 14:34N 35°27' E 139°38'0 0.0
2014-Oct-23 13:34N 35°27' E 139°38'0 0.0
2014-Oct-23 12:34N 35°27' E 139°38'0 0.0
2014-Oct-23 11:33N 35°27' E 139°38'0 0.0
2014-Oct-23 10:34N 35°27' E 139°38'0 0.0
2014-Oct-23 09:34N 35°27' E 139°38'0 0.0
2014-Oct-23 08:34N 35°27' E 139°38'0 0.0
2014-Oct-23 07:34N 35°27' E 139°38'0 0.0
2014-Oct-23 06:34N 35°27' E 139°38'1 1.1
2014-Oct-23 05:34N 35°28' E 139°40'2 2.5
2014-Oct-23 04:34N 35°27' E 139°43'1 0.7
2014-Oct-23 03:33N 35°27' E 139°42'0 0.0
2014-Oct-23 02:34N 35°27' E 139°42'0 0.0
2014-Oct-23 01:34N 35°27' E 139°42'0 0.0
2014-Oct-23 00:33N 35°27' E 139°42'0 0.0
2014-Oct-22 23:34N 35°27' E 139°42'0 0.3
2014-Oct-22 22:33N 35°26' E 139°42'3 3.2
2014-Oct-22 21:34N 35°27' E 139°38'0 0.1
2014-Oct-22 20:33N 35°27' E 139°39'0 0.0
2014-Oct-22 19:34N 35°27' E 139°39'0 0.0
2014-Oct-22 18:34N 35°27' E 139°39'0 0.0
2014-Oct-22 17:33N 35°27' E 139°39'0 0.0
2014-Oct-22 16:34N 35°27' E 139°39'0 0.0
2014-Oct-22 15:34N 35°27' E 139°39'0 0.0
2014-Oct-22 14:34N 35°27' E 139°39'0 0.0
2014-Oct-22 13:33N 35°27' E 139°39'0 0.0
2014-Oct-22 12:34N 35°27' E 139°39'0 0.0
2014-Oct-22 11:34N 35°27' E 139°39'0 0.0
2014-Oct-22 10:34N 35°27' E 139°39'3 3.3
2014-Oct-22 09:34N 35°29' E 139°42'2 2.3
2014-Oct-22 08:34N 35°27' E 139°42'1 0.6
2014-Oct-22 07:34N 35°27' E 139°41'2 2.1
2014-Oct-22 06:34N 35°27' E 139°38'0 0.0
2014-Oct-22 05:34N 35°27' E 139°38'0 0.0
2014-Oct-22 04:33N 35°27' E 139°38'0 0.0
2014-Oct-22 03:34N 35°27' E 139°38'4 3.9
2014-Oct-22 02:34N 35°29' E 139°43'3 3.2
2014-Oct-22 01:34N 35°30' E 139°46'2 1.9
2014-Oct-22 00:33N 35°29' E 139°46'0 0.4
2014-Oct-21 23:34N 35°29' E 139°46'2 2.0
2014-Oct-21 22:33N 35°31' E 139°46'6 6.4
2014-Oct-21 21:34N 35°27' E 139°40'1 1.0
2014-Oct-21 20:34N 35°27' E 139°38'0 0.0
2014-Oct-21 19:34N 35°27' E 139°38'0 0.0
2014-Oct-21 18:34N 35°27' E 139°38'0 0.0
2014-Oct-21 17:33N 35°27' E 139°38'0 0.0
2014-Oct-21 16:34N 35°27' E 139°38'0 0.0
2014-Oct-21 15:34N 35°27' E 139°38'0 0.0
2014-Oct-21 14:34N 35°27' E 139°38'0 0.0
2014-Oct-21 13:34N 35°27' E 139°38'0 0.0
2014-Oct-21 12:33N 35°27' E 139°38'0 0.0
2014-Oct-21 11:33N 35°27' E 139°38'0 0.0
2014-Oct-21 10:33N 35°27' E 139°38'0 0.0
2014-Oct-21 09:33N 35°27' E 139°38'0 0.0
2014-Oct-21 08:34N 35°27' E 139°38'0 0.0
2014-Oct-21 07:34N 35°27' E 139°38'0 0.0
2014-Oct-21 06:33N 35°27' E 139°38'1 0.8
2014-Oct-21 05:34N 35°28' E 139°39'4 4.1
2014-Oct-21 04:33N 35°30' E 139°44'3 3.0
2014-Oct-21 03:34N 35°27' E 139°45'4 4.3
2014-Oct-21 02:34N 35°27' E 139°39'0 0.0
2014-Oct-21 01:34N 35°27' E 139°39'4 3.7
2014-Oct-21 00:34N 35°29' E 139°43'3 2.6
2014-Oct-20 23:34N 35°28' E 139°40'2 1.7
2014-Oct-20 22:34N 35°27' E 139°38'0 0.0
2014-Oct-20 21:34N 35°27' E 139°38'0 0.0
2014-Oct-20 20:34N 35°27' E 139°38'0 0.0
2014-Oct-20 19:33N 35°27' E 139°38'0 0.0
2014-Oct-20 18:33N 35°27' E 139°38'0 0.0
2014-Oct-20 17:34N 35°27' E 139°38'0 0.0
2014-Oct-20 16:34N 35°27' E 139°38'0 0.0
2014-Oct-20 15:33N 35°27' E 139°38'0 0.0
2014-Oct-20 14:34N 35°27' E 139°38'0 0.0
2014-Oct-20 13:34N 35°27' E 139°38'0 0.0
2014-Oct-20 12:34N 35°27' E 139°38'0 0.0
2014-Oct-20 11:34N 35°27' E 139°38'0 0.0
2014-Oct-20 10:33N 35°27' E 139°38'0 0.0
2014-Oct-20 09:34N 35°27' E 139°38'0 0.0
2014-Oct-20 08:34N 35°27' E 139°38'0 0.0
2014-Oct-20 07:34N 35°27' E 139°38'1 0.6
2014-Oct-20 06:33N 35°27' E 139°39'0 0.3
2014-Oct-20 05:33N 35°27' E 139°39'0 0.0
2014-Oct-20 04:34N 35°27' E 139°39'1 1.0
2014-Oct-20 03:34N 35°27' E 139°41'1 1.0
2014-Oct-20 02:33N 35°27' E 139°39'0 0.0
2014-Oct-20 01:34N 35°27' E 139°39'0 0.0
2014-Oct-20 00:34N 35°27' E 139°39'0 0.0
2014-Oct-19 23:34N 35°27' E 139°39'2 2.4
2014-Oct-19 22:34N 35°26' E 139°42'3 3.3
2014-Oct-19 21:33N 35°27' E 139°38'0 0.0
2014-Oct-19 20:34N 35°27' E 139°38'0 0.0
2014-Oct-19 19:34N 35°27' E 139°38'0 0.0
2014-Oct-19 18:34N 35°27' E 139°38'0 0.0
2014-Oct-19 17:34N 35°27' E 139°38'0 0.0
2014-Oct-19 16:34N 35°27' E 139°38'0 0.0
2014-Oct-19 15:34N 35°27' E 139°38'0 0.0
2014-Oct-19 14:33N 35°27' E 139°38'0 0.0
2014-Oct-19 13:33N 35°27' E 139°38'0 0.0
2014-Oct-19 12:34N 35°27' E 139°38'0 0.0
2014-Oct-19 11:34N 35°27' E 139°38'0 0.0
2014-Oct-19 10:33N 35°27' E 139°38'0 0.0
2014-Oct-19 09:34N 35°27' E 139°38'0 0.0
2014-Oct-19 08:34N 35°27' E 139°38'0 0.0
2014-Oct-19 07:34N 35°27' E 139°38'0 0.0
2014-Oct-19 06:34N 35°27' E 139°38'0 0.0
2014-Oct-19 05:34N 35°27' E 139°38'0 0.0
2014-Oct-19 04:34N 35°27' E 139°38'0 0.0
2014-Oct-19 03:34N 35°27' E 139°38'0 0.0
2014-Oct-19 02:34N 35°27' E 139°38'0 0.0
2014-Oct-19 01:34N 35°27' E 139°38'0 0.0
2014-Oct-19 00:34N 35°27' E 139°38'0 0.0
2014-Oct-18 23:33N 35°27' E 139°38'0 0.0
2014-Oct-18 22:33N 35°27' E 139°38'0 0.0
2014-Oct-18 21:33N 35°27' E 139°38'0 0.0
2014-Oct-18 20:34N 35°27' E 139°38'0 0.0
2014-Oct-18 19:34N 35°27' E 139°38'0 0.0
2014-Oct-18 18:33N 35°27' E 139°38'0 0.0
2014-Oct-18 17:33N 35°27' E 139°38'0 0.0
2014-Oct-18 16:33N 35°27' E 139°38'0 0.0
2014-Oct-18 15:33N 35°27' E 139°38'0 0.0
2014-Oct-18 14:34N 35°27' E 139°38'0 0.0
2014-Oct-18 13:34N 35°27' E 139°38'0 0.0
2014-Oct-18 12:34N 35°27' E 139°38'0 0.0
2014-Oct-18 11:34N 35°27' E 139°38'0 0.0
2014-Oct-18 10:34N 35°27' E 139°38'0 0.0
2014-Oct-18 09:33N 35°27' E 139°38'0 0.0
2014-Oct-18 08:34N 35°27' E 139°38'0 0.0
2014-Oct-18 07:34N 35°27' E 139°38'0 0.0
2014-Oct-18 06:34N 35°27' E 139°38'0 0.0
2014-Oct-18 05:33N 35°27' E 139°38'0 0.0
2014-Oct-18 04:34N 35°27' E 139°38'0 0.0
2014-Oct-18 03:34N 35°27' E 139°38'0 0.0
2014-Oct-18 02:33N 35°27' E 139°38'0 0.0
2014-Oct-18 01:34N 35°27' E 139°38'0 0.0
2014-Oct-18 00:34N 35°27' E 139°38'4 4.3
2014-Oct-17 23:34N 35°23' E 139°41'2 2.1
2014-Oct-17 22:34N 35°24' E 139°38'3 2.8
2014-Oct-17 21:34N 35°23' E 139°41'3 2.6
2014-Oct-17 20:34N 35°26' E 139°42'0 0.0
2014-Oct-17 19:34N 35°26' E 139°42'0 0.0
2014-Oct-17 18:34N 35°26' E 139°42'1 1.3
2014-Oct-17 17:33N 35°27' E 139°40'1 1.0
2014-Oct-17 16:34N 35°28' E 139°41'1 0.9
2014-Oct-17 15:34N 35°28' E 139°42'1 0.9
2014-Oct-17 14:34N 35°28' E 139°40'0 0.0
2014-Oct-17 13:33N 35°28' E 139°40'1 1.3
2014-Oct-17 12:34N 35°27' E 139°42'2 2.4
2014-Oct-17 11:34N 35°27' E 139°44'1 1.4
2014-Oct-17 10:33N 35°27' E 139°43'1 1.3
2014-Oct-17 09:34N 35°27' E 139°44'2 2.5
2014-Oct-17 08:34N 35°27' E 139°41'2 2.4
2014-Oct-17 07:33N 35°27' E 139°38'0 0.0
2014-Oct-17 06:34N 35°27' E 139°38'0 0.0
2014-Oct-17 05:34N 35°27' E 139°38'0 0.0
2014-Oct-17 04:34N 35°27' E 139°38'0 0.0
2014-Oct-17 03:34N 35°27' E 139°38'0 0.0
2014-Oct-17 02:33N 35°27' E 139°38'0 0.0
2014-Oct-17 01:34N 35°27' E 139°38'0 0.0
2014-Oct-17 00:33N 35°27' E 139°38'0 0.0
2014-Oct-16 23:34N 35°27' E 139°38'0 0.0
2014-Oct-16 22:34N 35°27' E 139°38'0 0.0
2014-Oct-16 21:33N 35°27' E 139°38'0 0.0
2014-Oct-16 20:34N 35°27' E 139°38'0 0.0
2014-Oct-16 19:34N 35°27' E 139°38'0 0.0
2014-Oct-16 18:33N 35°27' E 139°38'0 0.0
2014-Oct-16 17:34N 35°27' E 139°38'0 0.0
2014-Oct-16 16:34N 35°27' E 139°38'0 0.0
2014-Oct-16 15:34N 35°27' E 139°38'0 0.0
2014-Oct-16 14:34N 35°27' E 139°38'0 0.0
2014-Oct-16 13:33N 35°27' E 139°38'0 0.0
2014-Oct-16 12:34N 35°27' E 139°38'0 0.0
2014-Oct-16 11:34N 35°27' E 139°38'0 0.0
2014-Oct-16 10:33N 35°27' E 139°38'0 0.0
2014-Oct-16 09:33N 35°27' E 139°38'0 0.0
2014-Oct-16 08:34N 35°27' E 139°38'0 0.0
2014-Oct-16 07:34N 35°27' E 139°38'0 0.0
2014-Oct-16 06:34N 35°27' E 139°38'0 0.0
2014-Oct-16 05:34N 35°27' E 139°38'0 0.0
2014-Oct-16 04:33N 35°27' E 139°38'0 0.0
2014-Oct-16 03:33N 35°27' E 139°38'0 0.0
2014-Oct-16 02:33N 35°27' E 139°38'0 0.0
2014-Oct-16 01:34N 35°27' E 139°38'0 0.0
2014-Oct-16 00:33N 35°27' E 139°38'  

Dump ship's entire track history